createdAt,value
2018-04-15T00:00:23.987Z,12.41
2018-04-15T00:01:23.991Z,12.51
2018-04-15T00:02:23.982Z,12.56
2018-04-15T00:03:44.944Z,12.49
2018-04-15T00:04:44.957Z,12.46
2018-04-15T00:05:23.960Z,12.56
2018-04-15T00:06:23.946Z,12.48
2018-04-15T00:07:23.901Z,12.42
2018-04-15T00:08:44.871Z,12.42
2018-04-15T00:09:44.844Z,12.42
2018-04-15T00:10:23.844Z,12.44
2018-04-15T00:11:23.833Z,12.51
2018-04-15T00:12:23.804Z,12.44
2018-04-15T00:13:44.780Z,12.45
2018-04-15T00:14:44.761Z,12.54
2018-04-15T00:15:23.768Z,12.52
2018-04-15T00:16:23.732Z,12.44
2018-04-15T00:17:23.706Z,12.54
2018-04-15T00:18:44.691Z,12.46
2018-04-15T00:19:44.752Z,12.46
2018-04-15T00:20:23.679Z,12.49
2018-04-15T00:21:23.660Z,12.44
2018-04-15T00:22:23.641Z,12.46
2018-04-15T00:23:44.623Z,12.49
2018-04-15T00:24:44.619Z,12.48
2018-04-15T00:25:23.602Z,12.48
2018-04-15T00:26:23.563Z,12.48
2018-04-15T00:27:23.558Z,12.48
2018-04-15T00:28:44.546Z,12.49
2018-04-15T00:29:44.516Z,12.52
2018-04-15T00:30:23.557Z,12.45
2018-04-15T00:31:23.481Z,12.49
2018-04-15T00:32:23.471Z,12.52
2018-04-15T00:33:44.460Z,12.45
2018-04-15T00:34:44.447Z,12.57
2018-04-15T00:35:23.418Z,12.45
2018-04-15T00:36:23.405Z,12.44
2018-04-15T00:37:23.393Z,12.52
2018-04-15T00:38:44.400Z,12.48
2018-04-15T00:39:44.364Z,12.54
2018-04-15T00:40:23.332Z,12.56
2018-04-15T00:41:23.356Z,12.57
2018-04-15T00:42:23.305Z,12.63
2018-04-15T00:43:44.296Z,12.60
2018-04-15T00:44:44.279Z,12.60
2018-04-15T00:45:23.292Z,12.51
2018-04-15T00:46:23.234Z,12.49
2018-04-15T00:47:23.223Z,12.51
2018-04-15T00:48:44.240Z,12.52
2018-04-15T00:49:44.192Z,12.44
2018-04-15T00:50:23.200Z,12.52
2018-04-15T00:51:23.198Z,12.51
2018-04-15T00:52:23.153Z,12.45
2018-04-15T00:53:44.129Z,12.51
2018-04-15T00:54:44.114Z,12.45
2018-04-15T00:55:23.085Z,12.49
2018-04-15T00:56:23.123Z,12.54
2018-04-15T00:57:23.072Z,12.48
2018-04-15T00:58:44.040Z,12.54
2018-04-15T00:59:44.056Z,12.44
2018-04-15T01:00:23.046Z,12.42
2018-04-15T01:01:23.015Z,12.44
2018-04-15T01:02:22.994Z,12.42
2018-04-15T01:03:44.072Z,12.39
2018-04-15T01:04:43.945Z,12.46
2018-04-15T01:05:23.044Z,12.45
2018-04-15T01:06:22.920Z,12.45
2018-04-15T01:07:22.903Z,12.39
2018-04-15T01:08:43.891Z,12.38
2018-04-15T01:09:43.872Z,12.49
2018-04-15T01:10:23.762Z,12.39
2018-04-15T01:11:22.835Z,12.44
2018-04-15T01:12:22.825Z,12.44
2018-04-15T01:13:43.818Z,12.54
2018-04-15T01:14:43.809Z,12.56
2018-04-15T01:15:22.901Z,12.52
2018-04-15T01:16:22.755Z,12.54
2018-04-15T01:17:22.764Z,12.42
2018-04-15T01:18:43.728Z,12.44
2018-04-15T01:19:43.703Z,12.41
2018-04-15T01:20:22.741Z,12.38
2018-04-15T01:21:22.673Z,12.42
2018-04-15T01:22:22.690Z,12.41
2018-04-15T01:23:43.746Z,12.49
2018-04-15T01:24:43.638Z,12.49
2018-04-15T01:25:22.618Z,12.46
2018-04-15T01:26:22.615Z,12.54
2018-04-15T01:27:22.581Z,12.52
2018-04-15T01:28:43.558Z,12.51
2018-04-15T01:29:43.539Z,12.45
2018-04-15T01:30:22.527Z,12.60
2018-04-15T01:31:22.507Z,12.66
2018-04-15T01:32:22.506Z,12.66
2018-04-15T01:33:43.543Z,12.67
2018-04-15T01:34:43.509Z,12.69
2018-04-15T01:35:22.485Z,12.64
2018-04-15T01:36:22.449Z,12.67
2018-04-15T01:37:22.401Z,12.67
2018-04-15T01:38:43.419Z,12.69
2018-04-15T01:39:43.405Z,12.70
2018-04-15T01:40:22.363Z,12.69
2018-04-15T01:41:22.346Z,12.67
2018-04-15T01:42:22.351Z,12.70
2018-04-15T01:43:43.338Z,12.67
2018-04-15T01:44:43.298Z,12.69
2018-04-15T01:45:22.277Z,12.69
2018-04-15T01:46:22.258Z,12.78
2018-04-15T01:47:22.262Z,12.77
2018-04-15T01:48:43.246Z,12.70
2018-04-15T01:49:43.217Z,12.71
2018-04-15T01:50:22.195Z,12.78
2018-04-15T01:51:22.188Z,12.69
2018-04-15T01:52:22.166Z,12.79
2018-04-15T01:53:43.155Z,12.71
2018-04-15T01:54:43.141Z,12.75
2018-04-15T01:55:22.139Z,12.77
2018-04-15T01:56:22.111Z,12.67
2018-04-15T01:57:22.140Z,12.67
2018-04-15T01:58:43.087Z,12.69
2018-04-15T01:59:43.087Z,12.74
2018-04-15T02:00:22.051Z,12.75
2018-04-15T02:01:22.014Z,12.64
2018-04-15T02:02:22.003Z,12.69
2018-04-15T02:03:43.004Z,12.75
2018-04-15T02:04:42.969Z,12.75
2018-04-15T02:05:21.962Z,12.84
2018-04-15T02:06:21.940Z,12.88
2018-04-15T02:07:21.931Z,12.87
2018-04-15T02:08:42.907Z,12.92
2018-04-15T02:09:42.896Z,12.84
2018-04-15T02:10:21.884Z,12.95
2018-04-15T02:11:21.869Z,12.88
2018-04-15T02:12:21.841Z,12.85
2018-04-15T02:13:42.834Z,12.89
2018-04-15T02:14:42.822Z,12.84
2018-04-15T02:15:21.795Z,12.84
2018-04-15T02:16:21.798Z,12.79
2018-04-15T02:17:21.761Z,12.77
2018-04-15T02:18:42.752Z,12.85
2018-04-15T02:19:42.745Z,12.89
2018-04-15T02:20:21.716Z,12.77
2018-04-15T02:21:21.721Z,12.74
2018-04-15T02:22:21.685Z,12.66
2018-04-15T02:23:42.685Z,12.64
2018-04-15T02:24:42.653Z,12.77
2018-04-15T02:25:21.632Z,12.66
2018-04-15T02:26:21.619Z,12.66
2018-04-15T02:27:21.627Z,12.62
2018-04-15T02:28:42.597Z,12.69
2018-04-15T02:29:42.583Z,12.71
2018-04-15T02:30:21.577Z,12.69
2018-04-15T02:31:21.541Z,12.66
2018-04-15T02:32:21.527Z,12.57
2018-04-15T02:33:42.511Z,12.57
2018-04-15T02:34:42.495Z,12.63
2018-04-15T02:35:21.468Z,12.51
2018-04-15T02:36:21.462Z,12.49
2018-04-15T02:37:21.439Z,12.48
2018-04-15T02:38:42.431Z,12.46
2018-04-15T02:39:42.425Z,12.44
2018-04-15T02:40:21.400Z,12.41
2018-04-15T02:41:21.403Z,12.49
2018-04-15T02:42:21.392Z,12.48
2018-04-15T02:43:42.373Z,12.49
2018-04-15T02:44:42.330Z,12.57
2018-04-15T02:45:21.352Z,12.59
2018-04-15T02:46:21.298Z,12.59
2018-04-15T02:47:21.290Z,12.62
2018-04-15T02:48:42.286Z,12.63
2018-04-15T02:49:42.280Z,12.60
2018-04-15T02:50:21.236Z,12.59
2018-04-15T02:51:21.222Z,12.60
2018-04-15T02:52:21.191Z,12.54
2018-04-15T02:53:42.193Z,12.54
2018-04-15T02:54:42.178Z,12.51
2018-04-15T02:55:21.169Z,12.52
2018-04-15T02:56:21.198Z,12.51
2018-04-15T02:57:21.119Z,12.48
2018-04-15T02:58:42.100Z,12.48
2018-04-15T02:59:42.091Z,12.56
2018-04-15T03:00:21.067Z,12.59
2018-04-15T03:01:21.055Z,12.62
2018-04-15T03:02:21.079Z,12.52
2018-04-15T03:03:42.027Z,12.52
2018-04-15T03:04:42.011Z,12.42
2018-04-15T03:05:20.983Z,12.26
2018-04-15T03:06:20.986Z,12.24
2018-04-15T03:07:20.964Z,12.29
2018-04-15T03:08:41.938Z,12.39
2018-04-15T03:09:41.921Z,12.52
2018-04-15T03:10:20.899Z,12.49
2018-04-15T03:11:20.901Z,12.62
2018-04-15T03:12:20.879Z,12.59
2018-04-15T03:13:41.877Z,12.63
2018-04-15T03:14:41.860Z,12.63
2018-04-15T03:15:20.823Z,12.60
2018-04-15T03:16:20.806Z,12.52
2018-04-15T03:17:20.795Z,12.57
2018-04-15T03:18:41.794Z,12.63
2018-04-15T03:19:41.766Z,12.62
2018-04-15T03:20:20.742Z,12.66
2018-04-15T03:21:20.789Z,12.71
2018-04-15T03:22:20.710Z,12.77
2018-04-15T03:23:41.718Z,12.69
2018-04-15T03:24:41.675Z,12.69
2018-04-15T03:25:20.660Z,12.77
2018-04-15T03:26:20.647Z,12.77
2018-04-15T03:27:20.640Z,12.66
2018-04-15T03:28:41.624Z,12.78
2018-04-15T03:29:41.607Z,12.79
2018-04-15T03:30:20.576Z,12.79
2018-04-15T03:31:20.562Z,12.71
2018-04-15T03:32:20.552Z,12.69
2018-04-15T03:33:41.542Z,12.74
2018-04-15T03:34:41.513Z,12.64
2018-04-15T03:35:20.494Z,12.64
2018-04-15T03:36:20.477Z,12.64
2018-04-15T03:37:20.481Z,12.67
2018-04-15T03:38:41.461Z,12.66
2018-04-15T03:39:41.451Z,12.69
2018-04-15T03:40:20.416Z,12.63
2018-04-15T03:41:20.395Z,12.60
2018-04-15T03:42:20.394Z,12.52
2018-04-15T03:43:41.370Z,12.57
2018-04-15T03:44:41.350Z,12.45
2018-04-15T03:45:20.333Z,12.51
2018-04-15T03:46:20.319Z,12.41
2018-04-15T03:47:20.299Z,12.44
2018-04-15T03:48:41.285Z,12.52
2018-04-15T03:49:41.299Z,12.42
2018-04-15T03:50:20.255Z,12.29
2018-04-15T03:51:20.236Z,12.39
2018-04-15T03:52:20.220Z,12.34
2018-04-15T03:53:41.212Z,12.26
2018-04-15T03:54:41.184Z,12.31
2018-04-15T03:55:20.187Z,12.31
2018-04-15T03:56:20.154Z,12.27
2018-04-15T03:57:20.134Z,12.23
2018-04-15T03:58:41.129Z,12.21
2018-04-15T03:59:41.104Z,12.27
2018-04-15T04:00:20.102Z,12.23
2018-04-15T04:01:20.071Z,12.21
2018-04-15T04:02:20.065Z,12.11
2018-04-15T04:03:41.037Z,12.15
2018-04-15T04:04:41.031Z,12.12
2018-04-15T04:05:19.996Z,12.19
2018-04-15T04:06:20.005Z,12.11
2018-04-15T04:07:19.969Z,12.04
2018-04-15T04:08:41.007Z,12.02
2018-04-15T04:09:40.939Z,12.06
2018-04-15T04:10:19.927Z,11.97
2018-04-15T04:11:19.910Z,11.94
2018-04-15T04:12:19.888Z,11.87
2018-04-15T04:13:40.886Z,11.90
2018-04-15T04:14:40.849Z,11.82
2018-04-15T04:15:19.871Z,11.82
2018-04-15T04:16:19.818Z,11.83
2018-04-15T04:17:19.875Z,11.80
2018-04-15T04:18:40.783Z,11.70
2018-04-15T04:19:40.773Z,11.77
2018-04-15T04:20:19.753Z,11.75
2018-04-15T04:21:19.743Z,11.71
2018-04-15T04:22:19.712Z,11.67
2018-04-15T04:23:40.720Z,11.53
2018-04-15T04:24:40.695Z,11.47
2018-04-15T04:25:19.667Z,11.49
2018-04-15T04:26:19.690Z,11.53
2018-04-15T04:27:19.635Z,11.46
2018-04-15T04:28:40.625Z,11.43
2018-04-15T04:29:40.599Z,11.39
2018-04-15T04:30:19.585Z,11.46
2018-04-15T04:31:19.561Z,11.39
2018-04-15T04:32:19.549Z,11.28
2018-04-15T04:33:40.533Z,11.34
2018-04-15T04:34:40.524Z,11.39
2018-04-15T04:35:19.493Z,11.24
2018-04-15T04:36:19.496Z,11.35
2018-04-15T04:37:19.461Z,11.32
2018-04-15T04:38:40.516Z,11.20
2018-04-15T04:39:40.437Z,11.31
2018-04-15T04:40:19.421Z,11.21
2018-04-15T04:41:19.581Z,11.21
2018-04-15T04:42:19.377Z,11.21
2018-04-15T04:43:40.377Z,11.16
2018-04-15T04:44:40.341Z,11.25
2018-04-15T04:45:19.364Z,11.24
2018-04-15T04:46:19.314Z,11.24
2018-04-15T04:47:19.293Z,11.29
2018-04-15T04:48:40.286Z,11.21
2018-04-15T04:49:40.273Z,11.24
2018-04-15T04:50:19.246Z,11.25
2018-04-15T04:51:19.231Z,11.25
2018-04-15T04:52:19.202Z,11.21
2018-04-15T04:53:40.192Z,11.27
2018-04-15T04:54:40.190Z,11.24
2018-04-15T04:55:19.154Z,11.11
2018-04-15T04:56:19.142Z,11.10
2018-04-15T04:57:19.126Z,11.10
2018-04-15T04:58:40.099Z,11.27
2018-04-15T04:59:40.089Z,11.16
2018-04-15T05:00:19.069Z,11.14
2018-04-15T05:01:19.073Z,11.17
2018-04-15T05:02:19.047Z,11.16
2018-04-15T05:03:40.018Z,11.16
2018-04-15T05:04:40.017Z,11.13
2018-04-15T05:05:19.034Z,11.20
2018-04-15T05:06:18.966Z,11.19
2018-04-15T05:07:18.967Z,11.16
2018-04-15T05:08:39.948Z,11.19
2018-04-15T05:09:39.921Z,11.25
2018-04-15T05:10:18.889Z,11.29
2018-04-15T05:11:18.886Z,11.21
2018-04-15T05:12:18.862Z,11.21
2018-04-15T05:13:39.876Z,11.19
2018-04-15T05:14:39.847Z,11.24
2018-04-15T05:15:18.812Z,11.25
2018-04-15T05:16:18.795Z,11.25
2018-04-15T05:17:18.770Z,11.19
2018-04-15T05:18:39.753Z,11.21
2018-04-15T05:19:39.738Z,11.16
2018-04-15T05:20:18.738Z,11.21
2018-04-15T05:21:18.702Z,11.21
2018-04-15T05:22:18.684Z,11.10
2018-04-15T05:23:39.665Z,11.27
2018-04-15T05:24:39.658Z,11.25
2018-04-15T05:25:18.635Z,11.24
2018-04-15T05:26:18.614Z,11.21
2018-04-15T05:27:18.593Z,11.19
2018-04-15T05:28:39.584Z,11.14
2018-04-15T05:29:39.571Z,11.25
2018-04-15T05:30:18.541Z,11.11
2018-04-15T05:31:18.546Z,11.16
2018-04-15T05:32:18.546Z,11.13
2018-04-15T05:33:39.501Z,11.10
2018-04-15T05:34:39.470Z,11.19
2018-04-15T05:35:18.475Z,11.27
2018-04-15T05:36:18.448Z,11.27
2018-04-15T05:37:18.420Z,11.21
2018-04-15T05:38:39.405Z,11.27
2018-04-15T05:39:39.405Z,11.19
2018-04-15T05:40:18.377Z,11.19
2018-04-15T05:41:18.348Z,11.19
2018-04-15T05:42:18.332Z,11.20
2018-04-15T05:43:39.337Z,11.38
2018-04-15T05:44:39.295Z,11.31
2018-04-15T05:45:18.295Z,11.32
2018-04-15T05:46:18.270Z,11.24
2018-04-15T05:47:18.257Z,11.31
2018-04-15T05:48:39.288Z,11.25
2018-04-15T05:49:39.215Z,11.35
2018-04-15T05:50:18.198Z,11.38
2018-04-15T05:51:18.183Z,11.38
2018-04-15T05:52:18.167Z,11.38
2018-04-15T05:53:39.157Z,11.39
2018-04-15T05:54:39.131Z,11.35
2018-04-15T05:55:18.128Z,11.41
2018-04-15T05:56:18.095Z,11.38
2018-04-15T05:57:18.078Z,11.47
2018-04-15T05:58:39.055Z,11.36
2018-04-15T05:59:39.040Z,11.39
2018-04-15T06:00:18.023Z,11.44
2018-04-15T06:01:18.004Z,11.47
2018-04-15T06:02:17.984Z,11.46
2018-04-15T06:03:38.978Z,11.43
2018-04-15T06:04:38.950Z,11.47
2018-04-15T06:05:17.963Z,11.53
2018-04-15T06:06:17.915Z,11.54
2018-04-15T06:07:17.911Z,11.62
2018-04-15T06:08:38.885Z,11.65
2018-04-15T06:09:38.866Z,11.74
2018-04-15T06:10:17.881Z,11.71
2018-04-15T06:11:17.842Z,11.78
2018-04-15T06:12:17.818Z,11.72
2018-04-15T06:13:38.860Z,11.59
2018-04-15T06:14:38.790Z,11.72
2018-04-15T06:15:17.762Z,11.72
2018-04-15T06:16:17.754Z,11.75
2018-04-15T06:17:17.729Z,11.82
2018-04-15T06:18:38.740Z,11.89
2018-04-15T06:19:38.691Z,11.85
2018-04-15T06:20:17.670Z,11.89
2018-04-15T06:21:17.648Z,11.86
2018-04-15T06:22:17.646Z,11.75
2018-04-15T06:23:38.635Z,11.93
2018-04-15T06:24:38.706Z,11.89
2018-04-15T06:25:17.589Z,11.82
2018-04-15T06:26:17.576Z,11.90
2018-04-15T06:27:17.548Z,11.82
2018-04-15T06:28:38.544Z,11.89
2018-04-15T06:29:38.524Z,11.83
2018-04-15T06:30:17.504Z,11.87
2018-04-15T06:31:17.504Z,11.89
2018-04-15T06:32:17.469Z,11.93
2018-04-15T06:33:38.445Z,11.93
2018-04-15T06:34:38.440Z,11.94
2018-04-15T06:35:17.408Z,12.01
2018-04-15T06:36:17.400Z,12.01
2018-04-15T06:37:17.398Z,11.96
2018-04-15T06:38:38.397Z,11.97
2018-04-15T06:39:38.352Z,12.11
2018-04-15T06:40:17.323Z,12.04
2018-04-15T06:41:17.335Z,12.11
2018-04-15T06:42:17.293Z,12.19
2018-04-15T06:43:38.317Z,12.21
2018-04-15T06:44:38.299Z,12.16
2018-04-15T06:45:17.270Z,12.20
2018-04-15T06:46:17.238Z,12.26
2018-04-15T06:47:17.208Z,12.39
2018-04-15T06:48:38.204Z,12.37
2018-04-15T06:49:38.170Z,12.39
2018-04-15T06:50:17.183Z,12.41
2018-04-15T06:51:17.141Z,12.37
2018-04-15T06:52:17.122Z,12.33
2018-04-15T06:53:38.105Z,12.31
2018-04-15T06:54:38.101Z,12.34
2018-04-15T06:55:17.077Z,12.38
2018-04-15T06:56:17.072Z,12.34
2018-04-15T06:57:17.045Z,12.31
2018-04-15T06:58:38.021Z,12.23
2018-04-15T06:59:38.005Z,12.41
2018-04-15T07:00:16.986Z,12.37
2018-04-15T07:01:17.001Z,12.39
2018-04-15T07:02:16.977Z,12.42
2018-04-15T07:03:37.960Z,12.41
2018-04-15T07:04:37.946Z,12.41
2018-04-15T07:05:16.913Z,12.39
2018-04-15T07:06:16.885Z,12.44
2018-04-15T07:07:16.898Z,12.49
2018-04-15T07:08:37.866Z,12.52
2018-04-15T07:09:37.885Z,12.48
2018-04-15T07:10:16.817Z,12.57
2018-04-15T07:11:16.800Z,12.64
2018-04-15T07:12:16.787Z,12.52
2018-04-15T07:13:37.805Z,12.60
2018-04-15T07:14:37.746Z,12.63
2018-04-15T07:15:16.753Z,12.60
2018-04-15T07:16:16.714Z,12.64
2018-04-15T07:17:16.705Z,12.66
2018-04-15T07:18:37.692Z,12.69
2018-04-15T07:19:37.671Z,12.71
2018-04-15T07:20:16.654Z,12.66
2018-04-15T07:21:16.631Z,12.78
2018-04-15T07:22:16.627Z,12.81
2018-04-15T07:23:37.622Z,12.74
2018-04-15T07:24:37.588Z,12.89
2018-04-15T07:25:16.579Z,12.93
2018-04-15T07:26:16.546Z,13.02
2018-04-15T07:27:16.535Z,13.09
2018-04-15T07:28:37.524Z,13.12
2018-04-15T07:29:37.513Z,13.15
2018-04-15T07:30:16.490Z,13.21
2018-04-15T07:31:16.468Z,13.22
2018-04-15T07:32:16.457Z,13.30
2018-04-15T07:33:37.490Z,13.33
2018-04-15T07:34:37.419Z,13.29
2018-04-15T07:35:16.433Z,13.32
2018-04-15T07:36:16.384Z,13.38
2018-04-15T07:37:16.372Z,13.37
2018-04-15T07:38:37.351Z,13.46
2018-04-15T07:39:37.346Z,13.52
2018-04-15T07:40:16.327Z,13.65
2018-04-15T07:41:16.298Z,13.61
2018-04-15T07:42:16.285Z,13.62
2018-04-15T07:43:37.272Z,13.63
2018-04-15T07:44:37.253Z,13.71
2018-04-15T07:45:16.243Z,13.63
2018-04-15T07:46:16.215Z,13.71
2018-04-15T07:47:16.202Z,13.74
2018-04-15T07:48:37.198Z,13.76
2018-04-15T07:49:37.189Z,13.87
2018-04-15T07:50:16.163Z,13.88
2018-04-15T07:51:16.141Z,13.91
2018-04-15T07:52:16.123Z,13.89
2018-04-15T07:53:37.124Z,13.81
2018-04-15T07:54:37.104Z,13.83
2018-04-15T07:55:16.097Z,13.94
2018-04-15T07:56:16.079Z,13.92
2018-04-15T07:57:16.060Z,13.96
2018-04-15T07:58:37.034Z,13.99
2018-04-15T07:59:37.024Z,14.12
2018-04-15T08:00:16.000Z,14.04
2018-04-15T08:01:15.987Z,14.20
2018-04-15T08:02:15.996Z,14.31
2018-04-15T08:03:36.952Z,14.43
2018-04-15T08:04:36.948Z,14.42
2018-04-15T08:05:15.922Z,14.47
2018-04-15T08:06:15.914Z,14.50
2018-04-15T08:07:15.892Z,14.57
2018-04-15T08:08:36.880Z,14.61
2018-04-15T08:09:36.868Z,14.64
2018-04-15T08:10:15.835Z,14.87
2018-04-15T08:11:15.837Z,14.86
2018-04-15T08:12:15.807Z,14.91
2018-04-15T08:13:36.801Z,14.99
2018-04-15T08:14:36.794Z,15.09
2018-04-15T08:15:15.759Z,15.28
2018-04-15T08:16:15.749Z,15.36
2018-04-15T08:17:15.732Z,15.48
2018-04-15T08:18:36.732Z,15.61
2018-04-15T08:19:36.742Z,15.84
2018-04-15T08:20:15.696Z,15.97
2018-04-15T08:21:15.669Z,15.97
2018-04-15T08:22:15.664Z,16.11
2018-04-15T08:23:36.647Z,16.26
2018-04-15T08:24:36.634Z,16.40
2018-04-15T08:25:15.635Z,16.52
2018-04-15T08:26:15.632Z,16.71
2018-04-15T08:27:15.595Z,16.81
2018-04-15T08:28:36.578Z,16.81
2018-04-15T08:29:36.571Z,17.03
2018-04-15T08:30:15.532Z,17.18
2018-04-15T08:31:15.574Z,17.07
2018-04-15T08:32:15.518Z,17.22
2018-04-15T08:33:36.509Z,17.26
2018-04-15T08:34:36.491Z,17.20
2018-04-15T08:35:15.468Z,16.93
2018-04-15T08:36:15.457Z,16.88
2018-04-15T08:37:15.450Z,17.00
2018-04-15T08:38:36.461Z,17.00
2018-04-15T08:39:36.422Z,17.00
2018-04-15T08:40:15.419Z,16.85
2018-04-15T08:41:15.401Z,16.80
2018-04-15T08:42:15.374Z,16.83
2018-04-15T08:43:36.375Z,16.89
2018-04-15T08:44:36.364Z,16.96
2018-04-15T08:45:15.343Z,17.08
2018-04-15T08:46:15.371Z,17.14
2018-04-15T08:47:15.304Z,17.25
2018-04-15T08:48:36.318Z,17.36
2018-04-15T08:49:36.283Z,17.48
2018-04-15T08:50:15.284Z,17.59
2018-04-15T08:51:15.287Z,17.59
2018-04-15T08:52:15.288Z,17.67
2018-04-15T08:53:36.276Z,17.67
2018-04-15T08:54:36.238Z,17.64
2018-04-15T08:55:15.209Z,17.57
2018-04-15T08:56:15.189Z,17.64
2018-04-15T08:57:15.186Z,17.71
2018-04-15T08:58:36.171Z,17.51
2018-04-15T08:59:36.155Z,17.50
2018-04-15T09:00:15.135Z,17.35
2018-04-15T09:01:15.119Z,17.25
2018-04-15T09:02:15.158Z,17.30
2018-04-15T09:03:36.103Z,17.32
2018-04-15T09:04:36.108Z,17.30
2018-04-15T09:05:15.080Z,17.20
2018-04-15T09:06:15.069Z,17.20
2018-04-15T09:07:15.087Z,17.07
2018-04-15T09:08:36.036Z,17.03
2018-04-15T09:09:36.025Z,16.99
2018-04-15T09:10:15.054Z,16.90
2018-04-15T09:11:15.019Z,17.08
2018-04-15T09:12:14.981Z,17.22
2018-04-15T09:13:36.033Z,17.35
2018-04-15T09:14:35.956Z,17.54
2018-04-15T09:15:14.942Z,17.82
2018-04-15T09:16:14.929Z,17.81
2018-04-15T09:17:14.947Z,17.73
2018-04-15T09:18:35.902Z,17.76
2018-04-15T09:19:35.894Z,17.73
2018-04-15T09:20:14.882Z,17.62
2018-04-15T09:21:14.861Z,17.66
2018-04-15T09:22:14.842Z,17.59
2018-04-15T09:23:35.870Z,17.51
2018-04-15T09:24:35.831Z,17.62
2018-04-15T09:25:14.821Z,17.57
2018-04-15T09:26:14.794Z,17.59
2018-04-15T09:27:14.803Z,17.51
2018-04-15T09:28:35.768Z,17.62
2018-04-15T09:29:35.775Z,17.59
2018-04-15T09:30:14.738Z,17.53
2018-04-15T09:31:14.724Z,17.35
2018-04-15T09:32:14.731Z,17.28
2018-04-15T09:33:35.720Z,17.13
2018-04-15T09:34:35.685Z,17.15
2018-04-15T09:35:14.668Z,17.15
2018-04-15T09:36:14.657Z,17.23
2018-04-15T09:37:14.648Z,17.25
2018-04-15T09:38:35.636Z,17.25
2018-04-15T09:39:35.641Z,17.28
2018-04-15T09:40:14.600Z,17.20
2018-04-15T09:41:14.600Z,17.32
2018-04-15T09:42:14.576Z,17.44
2018-04-15T09:43:35.582Z,17.33
2018-04-15T09:44:35.545Z,17.20
2018-04-15T09:45:14.543Z,17.08
2018-04-15T09:46:14.524Z,17.07
2018-04-15T09:47:14.527Z,17.15
2018-04-15T09:48:35.500Z,17.18
2018-04-15T09:49:35.516Z,17.23
2018-04-15T09:50:14.467Z,17.23
2018-04-15T09:51:14.459Z,17.08
2018-04-15T09:52:14.453Z,17.07
2018-04-15T09:53:35.429Z,17.13
2018-04-15T09:54:35.448Z,16.98
2018-04-15T09:55:14.400Z,16.92
2018-04-15T09:56:14.388Z,16.80
2018-04-15T09:57:14.386Z,16.83
2018-04-15T09:58:35.368Z,16.73
2018-04-15T09:59:35.368Z,16.85
2018-04-15T10:00:14.330Z,17.18
2018-04-15T10:01:14.308Z,17.38
2018-04-15T10:02:14.306Z,17.55
2018-04-15T10:03:35.305Z,17.79
2018-04-15T10:04:35.273Z,17.64
2018-04-15T10:05:14.290Z,17.64
2018-04-15T10:06:14.249Z,17.66
2018-04-15T10:07:14.232Z,17.55
2018-04-15T10:08:35.240Z,17.78
2018-04-15T10:09:35.214Z,17.89
2018-04-15T10:10:14.224Z,18.03
2018-04-15T10:11:14.179Z,18.13
2018-04-15T10:12:14.169Z,18.31
2018-04-15T10:13:35.169Z,18.28
2018-04-15T10:14:35.157Z,18.22
2018-04-15T10:15:14.128Z,18.28
2018-04-15T10:16:14.111Z,18.33
2018-04-15T10:17:14.103Z,18.44
2018-04-15T10:18:35.090Z,18.57
2018-04-15T10:19:35.071Z,18.58
2018-04-15T10:20:14.072Z,18.59
2018-04-15T10:21:14.048Z,18.68
2018-04-15T10:22:14.064Z,18.77
2018-04-15T10:23:35.020Z,19.02
2018-04-15T10:24:35.013Z,19.06
2018-04-15T10:25:13.996Z,19.02
2018-04-15T10:26:13.978Z,19.10
2018-04-15T10:27:13.977Z,19.08
2018-04-15T10:28:34.967Z,19.08
2018-04-15T10:29:34.964Z,18.98
2018-04-15T10:30:13.953Z,18.87
2018-04-15T10:31:13.931Z,18.86
2018-04-15T10:32:13.905Z,18.90
2018-04-15T10:33:34.899Z,18.90
2018-04-15T10:34:34.889Z,19.02
2018-04-15T10:35:13.883Z,19.17
2018-04-15T10:36:13.858Z,19.06
2018-04-15T10:37:13.859Z,19.05
2018-04-15T10:38:34.829Z,18.77
2018-04-15T10:39:34.826Z,18.73
2018-04-15T10:40:13.804Z,18.76
2018-04-15T10:41:13.818Z,18.65
2018-04-15T10:42:13.807Z,18.68
2018-04-15T10:43:34.792Z,18.77
2018-04-15T10:44:34.779Z,18.84
2018-04-15T10:45:13.754Z,18.83
2018-04-15T10:46:13.786Z,18.65
2018-04-15T10:47:13.769Z,18.61
2018-04-15T10:48:34.715Z,18.54
2018-04-15T10:49:34.704Z,18.64
2018-04-15T10:50:13.724Z,18.64
2018-04-15T10:51:13.674Z,18.84
2018-04-15T10:52:13.664Z,19.13
2018-04-15T10:53:34.664Z,19.35
2018-04-15T10:54:34.670Z,19.43
2018-04-15T10:55:13.632Z,19.43
2018-04-15T10:56:13.636Z,19.57
2018-04-15T10:57:13.597Z,19.50
2018-04-15T10:58:34.591Z,19.38
2018-04-15T10:59:34.684Z,19.23
2018-04-15T11:00:13.560Z,19.20
2018-04-15T11:01:13.551Z,19.23
2018-04-15T11:02:13.533Z,19.23
2018-04-15T11:03:34.535Z,19.29
2018-04-15T11:04:34.523Z,19.32
2018-04-15T11:05:13.551Z,19.47
2018-04-15T11:06:13.502Z,19.54
2018-04-15T11:07:13.487Z,19.66
2018-04-15T11:08:34.485Z,19.78
2018-04-15T11:09:34.473Z,19.68
2018-04-15T11:10:13.460Z,19.60
2018-04-15T11:11:13.433Z,19.61
2018-04-15T11:12:13.434Z,19.66
2018-04-15T11:13:34.438Z,19.58
2018-04-15T11:14:34.408Z,19.60
2018-04-15T11:15:13.437Z,19.53
2018-04-15T11:16:13.371Z,19.54
2018-04-15T11:17:13.423Z,19.46
2018-04-15T11:18:34.346Z,19.36
2018-04-15T11:19:34.347Z,19.31
2018-04-15T11:20:13.335Z,19.11
2018-04-15T11:21:13.307Z,19.14
2018-04-15T11:22:13.305Z,19.06
2018-04-15T11:23:34.308Z,19.10
2018-04-15T11:24:34.312Z,18.98
2018-04-15T11:25:13.275Z,18.92
2018-04-15T11:26:13.247Z,19.01
2018-04-15T11:27:13.269Z,19.05
2018-04-15T11:28:34.230Z,19.15
2018-04-15T11:29:34.216Z,19.15
2018-04-15T11:30:13.228Z,19.02
2018-04-15T11:31:13.221Z,19.08
2018-04-15T11:32:13.181Z,18.92
2018-04-15T11:33:34.167Z,18.83
2018-04-15T11:34:34.155Z,18.86
2018-04-15T11:35:13.162Z,18.90
2018-04-15T11:36:13.129Z,18.77
2018-04-15T11:37:13.149Z,18.77
2018-04-15T11:38:34.106Z,18.76
2018-04-15T11:39:34.098Z,18.74
2018-04-15T11:40:13.111Z,18.94
2018-04-15T11:41:13.074Z,18.98
2018-04-15T11:42:13.074Z,18.98
2018-04-15T11:43:34.059Z,18.87
2018-04-15T11:44:34.048Z,18.79
2018-04-15T11:45:13.025Z,18.77
2018-04-15T11:46:13.007Z,18.92
2018-04-15T11:47:12.999Z,18.95
2018-04-15T11:48:34.044Z,19.08
2018-04-15T11:49:34.004Z,19.11
2018-04-15T11:50:12.951Z,19.10
2018-04-15T11:51:12.965Z,19.08
2018-04-15T11:52:12.952Z,19.14
2018-04-15T11:53:33.920Z,19.18
2018-04-15T11:54:33.947Z,19.14
2018-04-15T11:55:12.896Z,19.13
2018-04-15T11:56:12.946Z,19.15
2018-04-15T11:57:12.870Z,19.23
2018-04-15T11:58:33.897Z,19.36
2018-04-15T11:59:33.844Z,19.68
2018-04-15T12:00:12.824Z,19.80
2018-04-15T12:01:12.809Z,19.93
2018-04-15T12:02:12.844Z,19.87
2018-04-15T12:03:33.800Z,19.80
2018-04-15T12:04:33.778Z,19.73
2018-04-15T12:05:12.765Z,19.55
2018-04-15T12:06:12.747Z,19.60
2018-04-15T12:07:12.743Z,19.70
2018-04-15T12:08:33.734Z,19.91
2018-04-15T12:09:33.748Z,20.09
2018-04-15T12:10:12.710Z,20.23
2018-04-15T12:11:12.700Z,20.51
2018-04-15T12:12:12.676Z,20.51
2018-04-15T12:13:33.679Z,20.59
2018-04-15T12:14:33.675Z,20.61
2018-04-15T12:15:12.641Z,20.46
2018-04-15T12:16:12.651Z,20.38
2018-04-15T12:17:12.691Z,20.30
2018-04-15T12:18:33.627Z,20.28
2018-04-15T12:19:33.619Z,20.23
2018-04-15T12:20:12.595Z,20.23
2018-04-15T12:21:12.575Z,20.30
2018-04-15T12:22:12.574Z,20.34
2018-04-15T12:23:33.556Z,20.34
2018-04-15T12:24:33.558Z,20.28
2018-04-15T12:25:12.528Z,20.33
2018-04-15T12:26:12.525Z,20.33
2018-04-15T12:27:12.515Z,20.21
2018-04-15T12:28:33.553Z,20.23
2018-04-15T12:29:33.523Z,20.24
2018-04-15T12:30:12.469Z,20.39
2018-04-15T12:31:12.476Z,20.59
2018-04-15T12:32:12.453Z,20.66
2018-04-15T12:33:33.454Z,20.65
2018-04-15T12:34:33.457Z,20.59
2018-04-15T12:35:12.426Z,20.51
2018-04-15T12:36:12.406Z,20.46
2018-04-15T12:37:12.405Z,20.35
2018-04-15T12:38:33.402Z,20.21
2018-04-15T12:39:33.386Z,20.24
2018-04-15T12:40:12.371Z,20.33
2018-04-15T12:41:12.357Z,20.34
2018-04-15T12:42:12.334Z,20.31
2018-04-15T12:43:33.334Z,20.21
2018-04-15T12:44:33.337Z,20.20
2018-04-15T12:45:12.303Z,20.25
2018-04-15T12:46:12.306Z,20.18
2018-04-15T12:47:12.310Z,20.23
2018-04-15T12:48:33.286Z,20.20
2018-04-15T12:49:33.294Z,20.30
2018-04-15T12:50:12.262Z,20.31
2018-04-15T12:51:12.287Z,20.33
2018-04-15T12:52:12.230Z,20.35